createdAt,value
2022-09-26T00:03:34.626Z,9.84
2022-09-26T00:07:37.536Z,9.82
2022-09-26T00:11:40.209Z,9.81
2022-09-26T00:15:41.732Z,9.77
2022-09-26T00:19:43.474Z,9.76
2022-09-26T00:23:45.890Z,9.71
2022-09-26T00:27:47.497Z,9.65
2022-09-26T00:31:49.376Z,9.62
2022-09-26T00:35:55.459Z,9.59
2022-09-26T00:39:57.043Z,9.56
2022-09-26T00:44:00.103Z,9.55
2022-09-26T00:48:05.618Z,9.55
2022-09-26T00:52:12.559Z,9.54
2022-09-26T00:56:19.981Z,9.53
2022-09-26T01:00:23.778Z,9.52
2022-09-26T01:04:28.424Z,9.51
2022-09-26T01:08:36.005Z,9.54
2022-09-26T01:12:38.284Z,9.53
2022-09-26T01:16:42.394Z,9.51
2022-09-26T01:21:25.642Z,9.47
2022-09-26T01:25:30.226Z,9.42
2022-09-26T01:29:42.861Z,9.40
2022-09-26T01:34:12.673Z,9.37
2022-09-26T01:38:37.267Z,9.36
2022-09-26T01:43:00.454Z,9.31
2022-09-26T01:47:16.983Z,9.30
2022-09-26T01:51:28.469Z,9.29
2022-09-26T01:55:37.232Z,9.29
2022-09-26T01:59:43.898Z,9.29
2022-09-26T02:03:54.307Z,9.28
2022-09-26T02:08:07.389Z,9.26
2022-09-26T02:12:14.216Z,9.23
2022-09-26T02:16:44.178Z,9.21
2022-09-26T02:20:55.775Z,9.17
2022-09-26T02:24:58.104Z,9.13
2022-09-26T02:29:01.330Z,9.11
2022-09-26T02:33:03.192Z,9.07
2022-09-26T02:37:10.306Z,9.05
2022-09-26T02:41:33.417Z,9.03
2022-09-26T02:45:48.117Z,9.00
2022-09-26T02:50:33.592Z,8.99
2022-09-26T02:54:46.502Z,8.97
2022-09-26T02:58:54.096Z,8.95
2022-09-26T03:03:08.033Z,8.94
2022-09-26T03:07:48.194Z,8.92
2022-09-26T03:11:50.886Z,8.87
2022-09-26T03:15:56.176Z,8.85
2022-09-26T03:20:21.626Z,8.85
2022-09-26T03:24:25.704Z,8.81
2022-09-26T03:28:35.344Z,8.80
2022-09-26T03:32:40.251Z,8.79
2022-09-26T03:36:42.058Z,8.74
2022-09-26T03:40:46.999Z,8.73
2022-09-26T03:45:15.037Z,8.73
2022-09-26T03:49:35.152Z,8.71
2022-09-26T03:53:40.119Z,8.70
2022-09-26T03:57:44.947Z,8.69
2022-09-26T04:01:58.003Z,8.70
2022-09-26T04:06:02.359Z,8.70
2022-09-26T04:10:04.955Z,8.70
2022-09-26T04:14:09.490Z,8.71
2022-09-26T04:18:11.353Z,8.71
2022-09-26T04:22:13.209Z,8.70
2022-09-26T04:26:22.875Z,8.64
2022-09-26T04:30:25.202Z,8.64
2022-09-26T04:34:30.976Z,8.64
2022-09-26T04:38:33.977Z,8.66
2022-09-26T04:42:37.050Z,8.82
2022-09-26T04:46:39.733Z,8.89
2022-09-26T04:50:41.460Z,8.89
2022-09-26T04:54:45.100Z,8.86
2022-09-26T04:58:46.987Z,8.88
2022-09-26T05:02:52.470Z,8.93
2022-09-26T05:06:59.234Z,8.97
2022-09-26T05:11:08.633Z,9.05
2022-09-26T05:15:10.783Z,9.15
2022-09-26T05:19:12.396Z,9.19
2022-09-26T05:23:45.204Z,9.23
2022-09-26T05:27:48.484Z,9.25
2022-09-26T05:31:51.601Z,9.32
2022-09-26T05:35:54.907Z,9.45
2022-09-26T05:40:15.750Z,9.52
2022-09-26T05:44:23.732Z,9.59
2022-09-26T05:48:29.863Z,9.64
2022-09-26T05:52:31.646Z,9.69
2022-09-26T05:56:37.869Z,9.75
2022-09-26T06:01:13.549Z,9.82
2022-09-26T06:05:15.821Z,9.90
2022-09-26T06:09:22.601Z,10.04
2022-09-26T06:13:48.584Z,10.22
2022-09-26T06:17:57.787Z,10.36
2022-09-26T06:21:59.460Z,10.54
2022-09-26T06:26:06.828Z,10.71
2022-09-26T06:30:10.670Z,10.89
2022-09-26T06:34:15.607Z,10.92
2022-09-26T06:38:46.247Z,10.86
2022-09-26T06:42:51.395Z,10.82
2022-09-26T06:47:03.138Z,10.72
2022-09-26T06:51:13.848Z,10.66
2022-09-26T06:55:15.771Z,10.57
2022-09-26T06:59:18.439Z,10.46
2022-09-26T07:03:28.731Z,10.51
2022-09-26T07:07:45.535Z,10.60
2022-09-26T07:12:14.282Z,10.69
2022-09-26T07:16:16.736Z,10.82
2022-09-26T07:20:46.589Z,10.93
2022-09-26T07:25:07.324Z,11.05
2022-09-26T07:29:09.991Z,11.18
2022-09-26T07:33:13.153Z,11.33
2022-09-26T07:37:20.687Z,11.52
2022-09-26T07:41:23.496Z,11.69
2022-09-26T07:46:01.060Z,11.86
2022-09-26T07:50:13.092Z,12.15
2022-09-26T07:54:23.997Z,12.42
2022-09-26T07:58:46.441Z,12.57
2022-09-26T08:03:14.106Z,12.72
2022-09-26T08:07:17.675Z,12.87
2022-09-26T08:11:29.125Z,13.13
2022-09-26T08:15:48.191Z,13.34
2022-09-26T08:19:58.393Z,13.65
2022-09-26T08:24:01.993Z,13.82
2022-09-26T08:28:07.507Z,14.05
2022-09-26T08:32:09.561Z,14.28
2022-09-26T08:36:13.509Z,14.49
2022-09-26T08:40:44.694Z,14.71
2022-09-26T08:45:47.692Z,14.61
2022-09-26T08:50:32.912Z,14.76
2022-09-26T08:54:37.442Z,14.73
2022-09-26T08:58:52.041Z,15.01
2022-09-26T09:03:04.117Z,15.03
2022-09-26T09:07:21.225Z,14.97
2022-09-26T09:11:33.042Z,14.90
2022-09-26T09:16:01.478Z,14.95
2022-09-26T09:20:35.584Z,15.09
2022-09-26T09:25:24.112Z,15.67
2022-09-26T09:29:33.896Z,15.65
2022-09-26T09:33:59.760Z,15.81
2022-09-26T09:38:18.150Z,16.15
2022-09-26T09:42:41.509Z,16.01
2022-09-26T09:46:43.754Z,16.04
2022-09-26T09:51:08.102Z,16.01
2022-09-26T09:55:13.119Z,15.82
2022-09-26T09:59:46.367Z,15.48
2022-09-26T10:04:08.629Z,15.40
2022-09-26T10:08:17.683Z,15.37
2022-09-26T10:12:39.271Z,15.69
2022-09-26T10:17:10.904Z,15.86
2022-09-26T10:21:33.023Z,15.89
2022-09-26T10:25:35.210Z,15.84
2022-09-26T10:29:38.402Z,15.76
2022-09-26T10:33:45.165Z,16.05
2022-09-26T10:37:59.090Z,16.33
2022-09-26T10:42:02.173Z,16.95
2022-09-26T10:46:16.254Z,17.40
2022-09-26T10:50:27.884Z,17.34
2022-09-26T10:55:07.178Z,17.13
2022-09-26T10:59:11.756Z,17.29
2022-09-26T11:03:17.796Z,17.41
2022-09-26T11:07:44.919Z,17.38
2022-09-26T11:12:29.986Z,17.29
2022-09-26T11:16:51.042Z,17.33
2022-09-26T11:20:57.269Z,17.89
2022-09-26T11:25:32.536Z,18.43
2022-09-26T11:29:55.622Z,19.41
2022-09-26T11:34:03.275Z,19.59
2022-09-26T11:38:29.046Z,18.94
2022-09-26T11:42:54.944Z,18.48
2022-09-26T11:47:34.529Z,17.91
2022-09-26T11:51:57.494Z,17.76
2022-09-26T11:56:11.236Z,17.79
2022-09-26T12:00:29.143Z,18.70
2022-09-26T12:05:11.476Z,19.71
2022-09-26T12:09:34.337Z,20.76
2022-09-26T12:14:12.374Z,21.73
2022-09-26T12:18:53.542Z,22.01
2022-09-26T12:22:59.780Z,22.21
2022-09-26T12:27:16.993Z,22.32
2022-09-26T12:31:43.920Z,22.38
2022-09-26T12:35:49.707Z,21.09
2022-09-26T12:40:06.520Z,20.08
2022-09-26T12:44:28.537Z,19.24
2022-09-26T12:48:49.181Z,18.75
2022-09-26T12:53:19.411Z,18.29
2022-09-26T12:57:45.527Z,17.66
2022-09-26T13:02:25.841Z,17.36
2022-09-26T13:06:57.319Z,17.19
2022-09-26T13:11:34.367Z,17.22
2022-09-26T13:16:00.347Z,17.15
2022-09-26T13:20:14.605Z,17.03
2022-09-26T13:24:24.866Z,16.93
2022-09-26T13:29:18.042Z,16.74
2022-09-26T13:33:26.607Z,16.84
2022-09-26T13:37:47.912Z,17.10
2022-09-26T13:42:02.346Z,17.15
2022-09-26T13:46:16.206Z,17.04
2022-09-26T13:50:46.156Z,17.05
2022-09-26T13:55:04.500Z,17.11
2022-09-26T13:59:12.016Z,17.01
2022-09-26T14:03:14.042Z,17.00
2022-09-26T14:07:38.798Z,16.94
2022-09-26T14:11:49.852Z,16.87
2022-09-26T14:15:57.382Z,16.76
2022-09-26T14:20:05.715Z,16.60
2022-09-26T14:24:29.693Z,16.31
2022-09-26T14:28:34.337Z,16.04
2022-09-26T14:32:38.771Z,15.88
2022-09-26T14:36:41.824Z,15.95
2022-09-26T14:40:58.675Z,15.78
2022-09-26T14:45:04.985Z,15.77
2022-09-26T14:49:08.136Z,15.81
2022-09-26T14:53:47.950Z,15.80
2022-09-26T14:57:49.699Z,15.79
2022-09-26T15:01:53.334Z,15.90
2022-09-26T15:05:55.393Z,15.91
2022-09-26T15:10:01.483Z,15.78
2022-09-26T15:14:16.858Z,15.25
2022-09-26T15:18:32.105Z,15.18
2022-09-26T15:22:34.422Z,15.14
2022-09-26T15:26:37.124Z,14.92
2022-09-26T15:30:40.797Z,14.78
2022-09-26T15:34:42.991Z,14.78
2022-09-26T15:38:47.397Z,14.78
2022-09-26T15:42:58.682Z,14.69
2022-09-26T15:47:17.931Z,14.66
2022-09-26T15:51:35.904Z,14.68
2022-09-26T15:55:58.517Z,14.54
2022-09-26T16:00:01.847Z,14.44
2022-09-26T16:04:28.344Z,14.38
2022-09-26T16:08:37.768Z,14.36
2022-09-26T16:12:41.901Z,14.36
2022-09-26T16:16:43.669Z,14.37
2022-09-26T16:20:45.203Z,14.39
2022-09-26T16:24:46.840Z,14.25
2022-09-26T16:28:52.885Z,14.18
2022-09-26T16:33:17.294Z,14.09
2022-09-26T16:37:20.816Z,14.07
2022-09-26T16:46:16.478Z,14.01
2022-09-26T16:50:33.366Z,13.89
2022-09-26T16:54:35.045Z,13.94
2022-09-26T16:58:36.638Z,13.81
2022-09-26T17:02:39.128Z,13.88
2022-09-26T17:06:40.979Z,13.83
2022-09-26T17:10:43.464Z,13.83
2022-09-26T17:14:51.759Z,13.79
2022-09-26T17:18:56.978Z,13.78
2022-09-26T17:23:11.944Z,13.69
2022-09-26T17:27:23.150Z,13.74
2022-09-26T17:31:24.999Z,13.74
2022-09-26T17:35:33.104Z,13.59
2022-09-26T17:39:34.666Z,13.63
2022-09-26T17:43:36.358Z,13.49
2022-09-26T17:47:40.221Z,13.41
2022-09-26T17:51:42.728Z,13.35
2022-09-26T17:55:44.360Z,13.34
2022-09-26T17:59:47.851Z,13.24
2022-09-26T18:03:51.596Z,13.23
2022-09-26T18:07:58.420Z,13.19
2022-09-26T18:12:02.903Z,13.09
2022-09-26T18:16:05.713Z,12.99
2022-09-26T18:20:07.778Z,12.92
2022-09-26T18:24:19.242Z,12.80
2022-09-26T18:28:23.452Z,12.65
2022-09-26T18:32:29.721Z,12.49
2022-09-26T18:36:35.549Z,12.48
2022-09-26T18:40:44.453Z,12.47
2022-09-26T18:44:46.089Z,12.44
2022-09-26T18:48:47.972Z,12.41
2022-09-26T18:52:50.630Z,12.37
2022-09-26T18:57:10.983Z,12.25
2022-09-26T19:01:27.678Z,12.23
2022-09-26T19:05:29.702Z,12.19
2022-09-26T19:09:33.860Z,12.07
2022-09-26T19:13:35.707Z,11.94
2022-09-26T19:17:37.234Z,11.95
2022-09-26T19:21:44.676Z,11.88
2022-09-26T19:25:46.528Z,11.77
2022-09-26T19:30:05.418Z,11.64
2022-09-26T19:34:09.370Z,11.54
2022-09-26T19:38:23.355Z,11.46
2022-09-26T19:42:26.190Z,11.38
2022-09-26T19:46:28.052Z,11.41
2022-09-26T19:50:32.113Z,11.36
2022-09-26T19:54:34.904Z,11.29
2022-09-26T19:58:36.566Z,11.25
2022-09-26T20:02:38.829Z,11.17
2022-09-26T20:06:40.469Z,11.12
2022-09-26T20:10:42.269Z,11.12
2022-09-26T20:14:43.911Z,11.10
2022-09-26T20:18:48.771Z,11.06
2022-09-26T20:22:51.673Z,10.97
2022-09-26T20:26:53.696Z,11.00
2022-09-26T20:30:56.777Z,10.89
2022-09-26T20:35:00.529Z,10.88
2022-09-26T20:39:06.023Z,10.82
2022-09-26T20:43:14.491Z,10.77
2022-09-26T20:47:19.820Z,10.71
2022-09-26T20:51:26.525Z,10.59
2022-09-26T20:55:28.179Z,10.57
2022-09-26T20:59:29.972Z,10.54
2022-09-26T21:03:31.829Z,10.55
2022-09-26T21:07:33.484Z,10.52
2022-09-26T21:11:35.020Z,10.46
2022-09-26T21:15:36.951Z,10.45
2022-09-26T21:19:38.723Z,10.41
2022-09-26T21:24:01.068Z,10.41
2022-09-26T21:28:11.398Z,10.40
2022-09-26T21:32:20.150Z,10.35
2022-09-26T21:36:22.063Z,10.37
2022-09-26T21:40:26.509Z,10.40
2022-09-26T21:44:38.663Z,10.41
2022-09-26T21:48:40.294Z,10.44
2022-09-26T21:52:48.325Z,10.36
2022-09-26T21:56:56.516Z,10.42
2022-09-26T22:00:58.217Z,10.43
2022-09-26T22:04:59.833Z,10.34
2022-09-26T22:09:01.573Z,10.33
2022-09-26T22:13:04.138Z,10.31
2022-09-26T22:17:05.748Z,10.29
2022-09-26T22:21:09.738Z,10.32
2022-09-26T22:25:11.390Z,10.32
2022-09-26T22:29:13.333Z,10.27
2022-09-26T22:33:15.040Z,10.27
2022-09-26T22:37:17.052Z,10.25
2022-09-26T22:41:18.763Z,10.26
2022-09-26T22:45:20.677Z,10.26
2022-09-26T22:49:22.239Z,10.27
2022-09-26T22:53:23.842Z,10.29
2022-09-26T22:57:25.843Z,10.27
2022-09-26T23:01:28.585Z,10.17
2022-09-26T23:05:30.227Z,10.23
2022-09-26T23:09:31.807Z,10.30
2022-09-26T23:13:35.513Z,10.33
2022-09-26T23:17:37.085Z,10.36
2022-09-26T23:21:38.627Z,10.35
2022-09-26T23:25:48.717Z,10.31
2022-09-26T23:29:50.313Z,10.31
2022-09-26T23:33:53.108Z,10.35
2022-09-26T23:37:55.991Z,10.37
2022-09-26T23:41:58.798Z,10.39
2022-09-26T23:46:00.537Z,10.39
2022-09-26T23:50:02.482Z,10.39
2022-09-26T23:54:04.313Z,10.42
2022-09-26T23:58:06.064Z,10.46
